X  Fechar Dados meteorológicos de METAR da aviação     LIPX Verona-Villafranca Valerio Catullo Airport
Temperatura
11°C Temperatura
9°C Ponto de orvalho
88% Umidade



Vento
10 KM/H
6 MPH
3 M/S
5 NÓS



80°
L
Condições atuais

Leve Chuva Leve Chuva
Pressão 1003.92 (hPa) - 29.65 (inHg)
Visibilidade 4.3 (milha) - 7 (km)
Aeroporto
Código do aeroporto LIPX

Localização: Verona-Villafranca Valerio Catullo Airport
Distância: 0 (km)

Metar:
LIPX 141020Z 08005KT 040V100 7000 -RA BKN060 11/09 Q1004

Hora: 14-03-2023 10:20 CET